Time;durP1;ratioP1;P1;durP2;ratioP2;P2;SDS_P1;SDS_P2;PMS_P1;PMS_P2;Temp;Humidity;BMP_temperature;BMP_pressure;BME280_temperature;BME280_humidity;BME280_pressure;Samples;Min_cycle;Max_cycle;Signal;HPM_P1;HPM_P2
2023/01/05 00:01:04;;;;;;;11.43;2.67;;;;;;;6.83;78.47;100069.63;6272706;22;20034;-72
2023/01/05 00:03:31;;;;;;;15.75;2.28;;;;;;;6.88;78.35;100075.34;6272451;22;20027;-71
2023/01/05 00:06:03;;;;;;;14.27;2.67;;;;;;;6.88;78.05;100080.69;6273099;22;20035;-72
2023/01/05 00:08:30;;;;;;;17.83;2.50;;;;;;;6.95;77.16;100071.09;6272582;22;20024;-73
2023/01/05 00:22:31;;;;;;;9.57;2.13;;;;;;;6.70;77.65;100094.84;6273113;22;20095;-70
2023/01/05 00:25:03;;;;;;;16.13;2.13;;;;;;;6.92;77.47;100087.38;6271773;22;20023;-71
2023/01/05 00:27:37;;;;;;;19.45;3.22;;;;;;;6.75;77.92;100085.56;6272581;22;20087;-72
2023/01/05 00:30:05;;;;;;;12.82;2.53;;;;;;;6.87;77.32;100084.31;6273580;22;20326;-70
2023/01/05 00:32:32;;;;;;;13.13;2.03;;;;;;;6.92;77.34;100088.22;6254471;22;20410;-72
2023/01/05 00:34:59;;;;;;;18.15;3.17;;;;;;;6.80;77.54;100088.59;6243259;23;20024;-70
2023/01/05 00:37:29;;;;;;;12.20;1.90;;;;;;;6.88;77.59;100105.53;6242952;23;20020;-70
2023/01/05 00:39:55;;;;;;;12.40;2.00;;;;;;;6.89;76.97;100093.03;6242498;23;20112;-72
2023/01/05 00:42:22;;;;;;;15.55;2.58;;;;;;;6.73;77.57;100084.84;6242490;23;20023;-71
2023/01/05 00:44:48;;;;;;;17.40;2.85;;;;;;;6.79;76.93;100090.41;6242803;23;20402;-70
2023/01/05 00:47:15;;;;;;;17.08;2.78;;;;;;;6.73;77.47;100088.34;6242046;23;20046;-70
2023/01/05 00:49:41;;;;;;;15.75;2.88;;;;;;;6.78;77.06;100079.91;6243244;23;20046;-71
2023/01/05 00:52:08;;;;;;;22.70;3.17;;;;;;;6.73;76.80;100087.50;6242741;23;20027;-71
2023/01/05 00:54:34;;;;;;;17.15;3.03;;;;;;;6.94;76.06;100085.38;6241137;23;20365;-71
2023/01/05 00:57:01;;;;;;;14.05;2.28;;;;;;;6.88;76.36;100084.19;6242981;23;20056;-71
2023/01/05 00:59:28;;;;;;;20.63;3.35;;;;;;;6.93;75.82;100086.38;6241624;23;20453;-71
2023/01/05 01:01:54;;;;;;;21.10;2.50;;;;;;;6.99;75.73;100077.78;6242501;23;20028;-70
2023/01/05 01:04:21;;;;;;;15.85;2.97;;;;;;;6.93;75.80;100079.22;6240486;23;20027;-70
2023/01/05 01:06:48;;;;;;;18.25;2.78;;;;;;;6.83;75.64;100077.63;6242491;23;20035;-70
2023/01/05 01:09:15;;;;;;;15.60;2.78;;;;;;;6.94;75.69;100080.06;6236094;23;20147;-70
2023/01/05 01:11:42;;;;;;;21.17;3.45;;;;;;;6.97;75.13;100086.91;6242755;23;20027;-71
2023/01/05 01:14:10;;;;;;;20.95;2.47;;;;;;;6.99;75.28;100085.78;6242983;23;20099;-71
2023/01/05 01:16:37;;;;;;;19.40;2.90;;;;;;;6.90;75.37;100090.19;6241647;23;20349;-71
2023/01/05 01:19:04;;;;;;;17.15;3.20;;;;;;;6.98;75.17;100093.91;6242504;23;20020;-71
2023/01/05 01:21:31;;;;;;;19.60;2.80;;;;;;;7.09;74.53;100091.88;6242250;23;20024;-71
2023/01/05 01:23:57;;;;;;;16.75;2.50;;;;;;;7.05;75.18;100082.50;6241285;23;20475;-70
2023/01/05 01:26:24;;;;;;;21.33;3.10;;;;;;;7.05;74.87;100092.31;6242795;23;20397;-71
2023/01/05 01:28:50;;;;;;;19.13;2.78;;;;;;;7.15;74.70;100093.94;6236424;23;20028;-70
2023/01/05 01:31:17;;;;;;;19.38;2.67;;;;;;;7.06;75.28;100092.19;6241285;22;20027;-71
2023/01/05 01:33:44;;;;;;;12.38;2.35;;;;;;;6.86;75.65;100083.50;6214343;23;20111;-70
2023/01/05 01:36:10;;;;;;;15.55;2.58;;;;;;;6.96;75.95;100083.41;6240968;23;20024;-72
2023/01/05 01:38:37;;;;;;;17.80;3.35;;;;;;;7.09;74.84;100073.22;6241899;23;20043;-70
2023/01/05 01:41:04;;;;;;;16.90;3.15;;;;;;;6.90;75.57;100086.69;6215663;23;20030;-70
2023/01/05 01:43:41;;;;;;;12.48;2.00;;;;;;;7.14;74.31;100081.56;6242513;23;20039;-71
2023/01/05 01:46:08;;;;;;;17.70;2.67;;;;;;;6.89;74.84;100072.53;6240717;23;20397;-70
2023/01/05 01:48:37;;;;;;;18.23;2.63;;;;;;;7.01;74.49;100075.78;6241053;23;20012;-70
2023/01/05 01:51:10;;;;;;;16.08;2.53;;;;;;;7.02;74.29;100082.81;6241017;23;20128;-71
2023/01/05 01:53:44;;;;;;;20.70;2.90;;;;;;;6.89;74.29;100077.84;6246439;23;20051;-71
2023/01/05 01:56:14;;;;;;;17.65;2.78;;;;;;;6.96;74.23;100083.41;6246666;22;20064;-69
2023/01/05 01:58:41;;;;;;;9.98;1.83;;;;;;;7.07;74.00;100085.84;6249787;23;20040;-67
2023/01/05 02:01:08;;;;;;;11.93;2.10;;;;;;;7.12;73.54;100083.56;6247970;23;20413;-67
2023/01/05 02:03:36;;;;;;;15.20;2.38;;;;;;;6.88;74.12;100080.69;6248144;23;20016;-67
2023/01/05 02:09:43;;;;;;;16.13;2.75;;;;;;;7.18;73.19;100082.94;6246908;23;20024;-67
2023/01/05 02:12:34;;;;;;;16.63;2.38;;;;;;;7.15;73.22;100077.06;6247026;23;20099;-68
2023/01/05 02:15:15;;;;;;;14.07;2.75;;;;;;;7.04;73.40;100077.31;6247541;23;20024;-68
2023/01/05 02:17:56;;;;;;;11.55;2.38;;;;;;;7.13;73.30;100073.75;6248983;23;20027;-68
2023/01/05 02:20:31;;;;;;;19.17;2.78;;;;;;;6.98;73.32;100070.78;6250748;23;20024;-68
2023/01/05 02:23:35;;;;;;;16.13;2.70;;;;;;;7.12;73.17;100064.06;6248587;23;20087;-70
2023/01/05 02:26:27;;;;;;;22.83;2.85;;;;;;;6.86;73.72;100066.66;6248405;23;20020;-67
2023/01/05 02:29:31;;;;;;;16.10;2.55;;;;;;;6.95;73.63;100061.25;6251059;23;20437;-67
2023/01/05 02:32:18;;;;;;;15.07;2.75;;;;;;;6.88;73.16;100075.34;6261009;22;20016;-69
2023/01/05 02:34:56;;;;;;;9.07;2.22;;;;;;;6.83;73.59;100056.28;6283926;22;20020;-68
2023/01/05 02:38:04;;;;;;;15.88;2.95;;;;;;;7.21;72.62;100063.13;6283651;22;20375;-68
2023/01/05 02:40:41;;;;;;;17.20;3.08;;;;;;;7.03;73.07;100063.16;6282066;22;20099;-68
2023/01/05 02:43:10;;;;;;;14.88;3.10;;;;;;;7.16;72.89;100074.28;6284138;22;20078;-68
2023/01/05 02:45:37;;;;;;;14.23;3.03;;;;;;;7.02;72.98;100052.66;6283679;22;20027;-67
2023/01/05 02:48:04;;;;;;;10.60;2.13;;;;;;;7.27;71.62;100065.19;6284139;22;20012;-68
2023/01/05 02:50:52;;;;;;;14.57;2.35;;;;;;;7.22;71.89;100066.63;6285547;22;20046;-67
2023/01/05 02:53:21;;;;;;;10.70;2.45;;;;;;;7.15;71.90;100058.41;6287853;22;20023;-68
2023/01/05 02:56:05;;;;;;;16.50;2.53;;;;;;;7.13;71.35;100065.75;6287372;22;20035;-67
2023/01/05 02:58:45;;;;;;;20.27;2.88;;;;;;;6.99;71.85;100053.78;6289954;22;20091;-69
2023/01/05 03:01:18;;;;;;;19.27;3.40;;;;;;;7.13;71.36;100057.72;6282473;22;20070;-68
2023/01/05 03:03:53;;;;;;;16.98;2.60;;;;;;;7.11;71.06;100068.53;6288903;22;20027;-67
2023/01/05 03:06:38;;;;;;;26.98;3.00;;;;;;;6.87;71.35;100066.50;6292367;22;20004;-67
2023/01/05 03:09:05;;;;;;;15.02;2.40;;;;;;;7.23;70.70;100073.66;6291206;22;20031;-67
2023/01/05 03:14:51;;;;;;;14.17;2.50;;;;;;;7.02;70.91;100064.16;6295758;22;20031;-67
2023/01/05 03:17:26;;;;;;;8.50;1.75;;;;;;;6.96;70.58;100056.75;6296086;22;20234;-67
2023/01/05 03:19:56;;;;;;;14.77;2.45;;;;;;;7.04;70.60;100063.97;6297532;22;20043;-67
2023/01/05 03:37:12;;;;;;;15.00;1.92;;;;;;;7.05;69.60;100065.66;6299124;22;20035;-67
2023/01/05 03:39:42;;;;;;;10.70;1.60;;;;;;;7.20;69.75;100069.47;6300220;22;20020;-69
2023/01/05 03:42:10;;;;;;;15.45;2.88;;;;;;;7.06;69.59;100060.19;6300032;22;20102;-67
2023/01/05 03:44:38;;;;;;;12.35;1.63;;;;;;;7.00;69.59;100066.13;6300576;22;20015;-70
2023/01/05 03:47:05;;;;;;;12.43;1.95;;;;;;;7.03;69.73;100056.97;6276155;22;20029;-66
2023/01/05 03:49:32;;;;;;;11.93;1.88;;;;;;;7.14;69.41;100060.22;6300848;22;20023;-67
2023/01/05 03:51:58;;;;;;;15.52;1.85;;;;;;;7.13;68.99;100068.41;6301434;22;20067;-68
2023/01/05 03:54:25;;;;;;;11.02;2.15;;;;;;;7.11;69.15;100065.88;6294553;22;20023;-66
2023/01/05 03:56:52;;;;;;;11.70;1.83;;;;;;;7.13;69.39;100071.91;6293835;22;20027;-69
2023/01/05 03:59:18;;;;;;;12.35;2.08;;;;;;;7.25;68.81;100077.81;6273998;22;20029;-69
2023/01/05 04:01:45;;;;;;;11.77;1.63;;;;;;;7.22;68.83;100072.78;6272489;22;20029;-69
2023/01/05 04:04:11;;;;;;;11.48;2.53;;;;;;;7.37;68.63;100070.44;6272916;22;20520;-70
2023/01/05 04:06:38;;;;;;;6.50;1.30;;;;;;;7.32;69.12;100094.91;6273651;22;20027;-68
2023/01/05 04:09:04;;;;;;;9.93;1.80;;;;;;;7.31;69.25;100082.56;6274513;22;20019;-68
2023/01/05 04:11:31;;;;;;;9.93;1.85;;;;;;;7.38;69.09;100083.59;6272957;22;20015;-69
2023/01/05 04:13:57;;;;;;;10.10;1.58;;;;;;;7.26;69.89;100095.53;6273851;22;20098;-69
2023/01/05 04:16:24;;;;;;;12.13;1.92;;;;;;;7.32;70.25;100096.72;6273254;22;20033;-70
2023/01/05 04:18:51;;;;;;;10.25;2.50;;;;;;;7.30;70.89;100090.72;6273038;22;20030;-69
2023/01/05 04:21:17;;;;;;;8.07;1.63;;;;;;;7.33;71.20;100095.75;6272983;22;20360;-68
2023/01/05 04:23:44;;;;;;;11.48;2.67;;;;;;;7.24;71.86;100086.00;6272937;22;20051;-69
2023/01/05 04:26:10;;;;;;;12.05;2.03;;;;;;;7.14;72.02;100094.06;6273391;22;20348;-69
2023/01/05 04:28:37;;;;;;;12.77;2.30;;;;;;;7.18;72.33;100098.13;6271737;22;20470;-69
2023/01/05 04:31:03;;;;;;;10.43;1.70;;;;;;;7.16;72.03;100092.94;6273769;22;20090;-68
2023/01/05 04:33:30;;;;;;;10.30;1.90;;;;;;;7.27;71.55;100109.72;6272364;22;20096;-68
2023/01/05 04:35:57;;;;;;;9.13;1.85;;;;;;;7.09;71.81;100105.22;6271163;22;20465;-70
2023/01/05 04:38:23;;;;;;;12.80;2.20;;;;;;;7.01;71.52;100109.63;6272993;22;20411;-69
2023/01/05 04:40:50;;;;;;;15.10;2.40;;;;;;;7.23;71.47;100119.00;6272919;22;20027;-69
2023/01/05 04:43:18;;;;;;;12.32;1.88;;;;;;;7.16;71.37;100119.63;6272513;22;20023;-69
2023/01/05 04:45:47;;;;;;;12.13;1.85;;;;;;;7.26;70.92;100121.38;6271474;22;20016;-67
2023/01/05 04:48:14;;;;;;;8.35;1.42;;;;;;;7.10;72.23;100124.72;6272829;22;20023;-69
2023/01/05 04:50:41;;;;;;;9.43;1.67;;;;;;;7.32;72.13;100126.06;6270495;22;20020;-69
2023/01/05 04:53:07;;;;;;;12.57;1.98;;;;;;;7.25;72.80;100130.34;6273569;22;20059;-69
2023/01/05 04:55:34;;;;;;;6.57;1.58;;;;;;;6.92;75.36;100140.72;6271762;22;20016;-70
2023/01/05 04:58:00;;;;;;;11.38;1.83;;;;;;;6.86;76.48;100146.66;6272584;22;20028;-69
2023/01/05 05:00:32;;;;;;;7.55;1.88;;;;;;;6.88;76.78;100142.00;6271496;22;20365;-69
2023/01/05 05:02:59;;;;;;;12.45;2.10;;;;;;;6.97;76.48;100135.75;6273221;22;20054;-70
2023/01/05 05:05:26;;;;;;;15.45;2.67;;;;;;;6.98;76.77;100142.78;6270568;22;20007;-69
2023/01/05 05:07:52;;;;;;;11.25;1.90;;;;;;;6.92;77.50;100141.56;6272701;22;20098;-70
2023/01/05 05:10:19;;;;;;;14.70;2.95;;;;;;;6.92;77.71;100148.72;6272864;22;20019;-69
2023/01/05 05:12:45;;;;;;;11.27;2.08;;;;;;;6.85;77.22;100147.66;6272770;22;20102;-69
2023/01/05 05:15:12;;;;;;;13.95;2.40;;;;;;;6.86;77.58;100149.31;6271507;22;20388;-69
2023/01/05 05:17:39;;;;;;;14.85;2.10;;;;;;;6.79;78.28;100146.41;6273342;22;20095;-69
2023/01/05 05:20:06;;;;;;;19.27;2.45;;;;;;;7.06;77.49;100150.03;6273002;22;20023;-69
2023/01/05 05:22:32;;;;;;;17.40;2.80;;;;;;;7.15;76.42;100157.97;6271443;22;20509;-70
2023/01/05 05:24:59;;;;;;;18.63;3.05;;;;;;;7.33;76.24;100160.63;6272351;22;20030;-69
2023/01/05 05:27:25;;;;;;;17.05;3.22;;;;;;;6.98;77.31;100158.78;6272744;22;20026;-70
2023/01/05 05:29:51;;;;;;;15.48;2.55;;;;;;;7.16;77.28;100158.81;6272760;22;20024;-70
2023/01/05 05:32:18;;;;;;;14.57;2.38;;;;;;;7.17;76.57;100166.63;6271610;22;20030;-70
2023/01/05 05:34:45;;;;;;;19.70;2.33;;;;;;;6.93;76.86;100150.38;6272796;22;20020;-70
2023/01/05 05:37:11;;;;;;;12.98;2.53;;;;;;;7.32;75.58;100153.59;6272337;22;20098;-69
2023/01/05 05:39:38;;;;;;;12.02;2.33;;;;;;;7.02;76.08;100156.66;6271875;22;20399;-70
2023/01/05 05:42:04;;;;;;;22.10;3.85;;;;;;;6.83;76.55;100154.94;6271755;22;20016;-71
2023/01/05 05:44:31;;;;;;;14.65;2.67;;;;;;;7.10;76.27;100160.22;6268803;22;20031;-69
2023/01/05 05:46:57;;;;;;;12.02;3.00;;;;;;;7.36;75.01;100146.97;6271375;22;20386;-69
2023/01/05 05:49:24;;;;;;;10.98;3.63;;;;;;;6.91;75.94;100139.88;6272123;22;20026;-70
2023/01/05 05:51:51;;;;;;;12.77;2.00;;;;;;;7.11;75.08;100161.91;6271889;22;20074;-70
2023/01/05 05:54:17;;;;;;;10.85;2.10;;;;;;;7.23;75.12;100164.38;6272132;22;20026;-70
2023/01/05 05:56:44;;;;;;;6.53;1.65;;;;;;;7.03;75.41;100153.81;6272200;22;20024;-68
2023/01/05 05:59:10;;;;;;;15.60;2.00;;;;;;;7.14;74.95;100161.59;6271064;22;20039;-70
2023/01/05 06:01:37;;;;;;;12.68;1.90;;;;;;;7.05;75.72;100167.00;6268658;22;20046;-71
2023/01/05 06:04:03;;;;;;;15.05;2.55;;;;;;;6.86;76.21;100181.31;6269944;22;20397;-71
2023/01/05 06:06:30;;;;;;;8.95;1.92;;;;;;;7.04;76.42;100176.84;6271465;22;20394;-70
2023/01/05 06:08:56;;;;;;;10.48;1.83;;;;;;;7.06;75.65;100190.03;6272255;22;20024;-70
2023/01/05 06:11:23;;;;;;;13.30;2.38;;;;;;;7.19;75.36;100190.50;6271277;22;20460;-71
2023/01/05 06:13:50;;;;;;;6.05;1.95;;;;;;;7.03;75.46;100188.50;6270114;22;20070;-69
2023/01/05 06:16:16;;;;;;;11.63;1.80;;;;;;;7.18;75.07;100189.66;6271175;22;20030;-71
2023/01/05 06:18:43;;;;;;;8.23;2.03;;;;;;;7.22;75.33;100200.03;6273011;22;20341;-69
2023/01/05 06:21:09;;;;;;;8.90;2.35;;;;;;;7.27;74.73;100211.09;6273181;22;20030;-70
2023/01/05 06:23:36;;;;;;;10.32;2.10;;;;;;;7.19;75.11;100217.19;6272136;22;20433;-71
2023/01/05 06:26:02;;;;;;;7.88;1.60;;;;;;;7.31;74.62;100229.31;6273761;22;20099;-70
2023/01/05 06:28:29;;;;;;;10.40;1.92;;;;;;;7.30;75.22;100219.63;6275002;22;20048;-70
2023/01/05 06:30:55;;;;;;;13.68;2.05;;;;;;;7.23;75.59;100218.56;6273230;22;20098;-70
2023/01/05 06:33:22;;;;;;;5.80;1.27;;;;;;;6.92;76.08;100205.56;6271408;22;20099;-73
2023/01/05 06:35:48;;;;;;;5.93;1.50;;;;;;;7.12;75.10;100214.28;6273314;22;20023;-70
2023/01/05 06:38:15;;;;;;;7.60;1.42;;;;;;;6.79;75.47;100225.56;6274063;22;20027;-71
2023/01/05 06:40:43;;;;;;;8.57;1.40;;;;;;;6.97;75.12;100222.94;6274120;22;20032;-71
2023/01/05 06:43:11;;;;;;;4.72;1.10;;;;;;;7.17;74.25;100235.16;6274353;22;20046;-71
2023/01/05 06:45:37;;;;;;;12.95;1.52;;;;;;;7.02;74.22;100226.84;6273888;22;20070;-71
2023/01/05 06:48:04;;;;;;;6.22;0.90;;;;;;;7.02;73.91;100234.00;6274255;22;20107;-70
2023/01/05 06:50:31;;;;;;;8.70;1.02;;;;;;;6.94;74.11;100234.72;6274008;22;20011;-71
2023/01/05 06:52:58;;;;;;;5.07;1.00;;;;;;;7.15;73.68;100248.66;6274125;22;20027;-70
2023/01/05 06:55:24;;;;;;;4.35;0.65;;;;;;;6.97;74.19;100254.94;6273774;22;20007;-70
2023/01/05 06:57:51;;;;;;;7.30;1.20;;;;;;;6.90;74.33;100252.00;6275283;22;20107;-71
2023/01/05 07:00:26;;;;;;;5.82;0.85;;;;;;;6.64;74.53;100250.03;6272854;22;20023;-70
2023/01/05 07:02:52;;;;;;;3.20;0.80;;;;;;;6.94;74.05;100248.91;6272253;22;20066;-70
2023/01/05 07:05:19;;;;;;;6.03;0.98;;;;;;;6.90;74.39;100254.69;6274559;22;20030;-70
2023/01/05 07:07:45;;;;;;;6.03;1.20;;;;;;;6.89;74.26;100258.34;6272300;22;20049;-70
2023/01/05 07:10:12;;;;;;;6.18;0.88;;;;;;;6.67;74.13;100260.41;6274060;22;20094;-71
2023/01/05 07:12:38;;;;;;;4.05;0.80;;;;;;;6.77;73.35;100259.50;6274113;22;20027;-71
2023/01/05 07:15:06;;;;;;;2.40;0.60;;;;;;;6.73;73.51;100258.13;6271873;22;20023;-70
2023/01/05 07:17:33;;;;;;;3.55;0.80;;;;;;;6.97;73.24;100271.75;6274133;22;20031;-70
2023/01/05 07:19:59;;;;;;;6.80;1.05;;;;;;;7.00;73.29;100260.81;6273563;22;20027;-71
2023/01/05 07:22:27;;;;;;;4.25;1.02;;;;;;;6.69;73.69;100245.09;6273576;22;20022;-73
2023/01/05 07:24:53;;;;;;;2.40;0.70;;;;;;;6.64;72.94;100265.19;6272779;22;20019;-72
2023/01/05 07:27:20;;;;;;;3.50;0.52;;;;;;;6.87;71.90;100260.31;6273753;22;20445;-73
2023/01/05 07:29:47;;;;;;;4.90;1.38;;;;;;;6.77;72.47;100281.66;6273576;22;20027;-73
2023/01/05 07:32:13;;;;;;;4.82;1.35;;;;;;;6.90;71.42;100276.00;6272236;22;20334;-74
2023/01/05 07:34:40;;;;;;;9.90;2.08;;;;;;;6.90;71.23;100276.00;6272907;22;20043;-74
2023/01/05 07:37:07;;;;;;;4.40;0.82;;;;;;;6.91;71.46;100280.34;6271634;22;20030;-74
2023/01/05 07:39:33;;;;;;;3.42;0.70;;;;;;;6.77;72.15;100276.34;6271724;22;20069;-73
2023/01/05 07:42:00;;;;;;;2.83;0.65;;;;;;;6.54;71.44;100286.53;6253299;22;20471;-73
2023/01/05 07:44:27;;;;;;;9.65;0.90;;;;;;;6.81;71.10;100287.56;6271256;22;20510;-73
2023/01/05 07:46:53;;;;;;;2.28;0.70;;;;;;;6.90;71.72;100302.69;6272464;22;20120;-72
2023/01/05 07:49:20;;;;;;;5.88;0.82;;;;;;;6.57;71.85;100302.25;6273587;22;20015;-73
2023/01/05 07:51:47;;;;;;;6.80;0.70;;;;;;;6.47;71.42;100298.75;6271932;22;20035;-73
2023/01/05 07:54:14;;;;;;;10.88;1.13;;;;;;;6.80;69.94;100313.38;6266910;22;20032;-73
2023/01/05 07:56:41;;;;;;;2.08;0.98;;;;;;;6.85;70.54;100316.47;6271676;22;20020;-73
2023/01/05 07:59:07;;;;;;;6.72;1.08;;;;;;;6.39;70.54;100309.28;6271802;22;20483;-73
2023/01/05 08:01:34;;;;;;;7.25;0.85;;;;;;;6.59;69.81;100316.25;6272506;22;20023;-72
2023/01/05 08:04:01;;;;;;;3.58;0.80;;;;;;;6.73;69.94;100330.09;6271773;22;20043;-73
2023/01/05 08:06:27;;;;;;;6.55;0.85;;;;;;;6.32;70.62;100327.69;6272901;22;20065;-73
2023/01/05 08:08:55;;;;;;;2.75;0.60;;;;;;;6.70;70.00;100332.09;6270576;22;20028;-73
2023/01/05 08:11:22;;;;;;;5.07;0.65;;;;;;;6.62;69.63;100337.28;6274378;22;20522;-73
2023/01/05 08:14:01;;;;;;;4.10;0.40;;;;;;;6.68;69.43;100342.03;6271082;22;20027;-73
2023/01/05 08:16:30;;;;;;;3.10;0.70;;;;;;;6.84;69.16;100352.13;6272415;22;20098;-74
2023/01/05 08:18:58;;;;;;;2.30;0.60;;;;;;;6.59;69.36;100352.72;6272749;22;20077;-74
2023/01/05 08:21:25;;;;;;;4.60;0.60;;;;;;;6.67;68.44;100345.69;6272364;22;20012;-73
2023/01/05 08:23:56;;;;;;;4.63;0.52;;;;;;;6.70;68.53;100353.41;6273667;22;20081;-74
2023/01/05 08:26:23;;;;;;;3.10;0.73;;;;;;;6.94;68.06;100368.94;6273757;22;20023;-75
2023/01/05 08:28:50;;;;;;;3.15;0.52;;;;;;;6.68;68.43;100366.03;6272463;22;20023;-75
2023/01/05 08:31:32;;;;;;;4.57;0.50;;;;;;;6.59;68.48;100377.53;6272149;22;20123;-74
2023/01/05 08:34:03;;;;;;;4.15;0.63;;;;;;;6.89;68.52;100367.66;6273093;22;20027;-75
2023/01/05 08:36:30;;;;;;;2.83;0.50;;;;;;;6.81;67.77;100373.72;6272720;22;20755;-75
2023/01/05 08:39:00;;;;;;;1.45;0.60;;;;;;;6.69;67.75;100364.22;6259299;22;20074;-74
2023/01/05 08:41:31;;;;;;;2.50;0.88;;;;;;;6.67;67.36;100383.03;6270015;22;20027;-75
2023/01/05 08:44:01;;;;;;;1.77;0.40;;;;;;;6.80;66.96;100379.19;6261760;22;20456;-74
2023/01/05 08:46:33;;;;;;;3.70;0.60;;;;;;;6.74;66.61;100393.97;6271727;22;20254;-74
2023/01/05 08:49:03;;;;;;;2.92;0.75;;;;;;;6.82;65.72;100386.06;6272718;22;20027;-73
2023/01/05 08:51:30;;;;;;;1.27;0.45;;;;;;;6.75;65.97;100374.31;6272222;22;20090;-74
2023/01/05 08:53:57;;;;;;;3.95;0.65;;;;;;;6.97;66.17;100386.44;6271705;22;20514;-74
2023/01/05 08:56:25;;;;;;;3.95;0.55;;;;;;;6.85;65.88;100398.28;6273418;22;20024;-74
2023/01/05 08:58:58;;;;;;;4.00;0.77;;;;;;;6.77;65.46;100387.47;6272490;22;20027;-74
2023/01/05 09:01:24;;;;;;;1.58;0.50;;;;;;;6.93;65.56;100382.38;6270011;22;20015;-74
2023/01/05 09:03:51;;;;;;;7.28;0.80;;;;;;;6.84;65.12;100400.13;6273523;22;20566;-74
2023/01/05 09:06:19;;;;;;;3.55;0.73;;;;;;;6.86;65.22;100402.63;6272892;22;20020;-74
2023/01/05 09:08:45;;;;;;;1.88;0.50;;;;;;;6.65;64.93;100410.81;6271981;22;20401;-75
2023/01/05 09:11:21;;;;;;;1.60;0.50;;;;;;;6.39;64.67;100390.06;6257166;22;20314;-75
2023/01/05 09:13:50;;;;;;;4.38;1.13;;;;;;;6.61;64.43;100410.25;6245004;22;20027;-74
2023/01/05 09:16:19;;;;;;;3.33;0.70;;;;;;;6.73;64.42;100418.91;6271469;22;20094;-74
2023/01/05 09:19:06;;;;;;;5.07;0.65;;;;;;;6.54;64.68;100417.13;6272113;22;20469;-73
2023/01/05 09:21:33;;;;;;;3.30;0.90;;;;;;;6.64;64.16;100428.63;6272675;22;20099;-75
2023/01/05 09:23:59;;;;;;;5.32;1.10;;;;;;;6.81;64.06;100420.91;6270542;22;20107;-74
2023/01/05 09:26:25;;;;;;;3.50;0.73;;;;;;;6.88;63.91;100425.50;6272204;22;20365;-73
2023/01/05 09:28:53;;;;;;;4.50;0.75;;;;;;;6.53;64.75;100428.78;6272193;22;20023;-74
2023/01/05 09:31:22;;;;;;;5.88;1.17;;;;;;;6.86;63.72;100435.47;6272144;22;20019;-73
2023/01/05 09:33:48;;;;;;;3.88;0.90;;;;;;;6.94;63.27;100453.41;6271851;22;20028;-73
2023/01/05 09:36:17;;;;;;;3.15;0.75;;;;;;;6.92;63.10;100444.72;6273040;22;20007;-74
2023/01/05 09:38:50;;;;;;;2.47;1.15;;;;;;;6.74;62.72;100451.75;6272456;22;20024;-75
2023/01/05 09:41:26;;;;;;;2.78;1.02;;;;;;;7.07;62.04;100455.78;6272847;22;20031;-72
2023/01/05 09:44:30;;;;;;;3.15;0.77;;;;;;;6.93;61.65;100467.72;6272784;22;20030;-71
2023/01/05 09:47:23;;;;;;;4.60;0.80;;;;;;;7.24;61.15;100467.53;6272596;22;20020;-71
2023/01/05 09:49:50;;;;;;;5.53;1.30;;;;;;;7.39;60.85;100476.75;6253481;22;20019;-73
2023/01/05 09:52:21;;;;;;;3.65;1.10;;;;;;;7.15;61.25;100466.56;6271463;22;20032;-73
2023/01/05 09:54:48;;;;;;;5.78;1.48;;;;;;;7.45;60.25;100481.50;6272668;22;20095;-73
2023/01/05 09:57:21;;;;;;;6.03;0.98;;;;;;;7.63;59.19;100477.06;6271804;22;20024;-71
2023/01/05 09:59:54;;;;;;;4.57;0.90;;;;;;;8.03;58.39;100488.44;6272740;22;20026;-73
2023/01/05 10:02:42;;;;;;;4.25;1.20;;;;;;;8.22;57.16;100474.94;6272902;22;20019;-73
2023/01/05 10:05:11;;;;;;;6.40;1.05;;;;;;;8.46;56.07;100485.06;6273669;22;20026;-73
2023/01/05 10:07:54;;;;;;;6.13;1.20;;;;;;;9.32;53.76;100481.75;6274428;22;20023;-72
2023/01/05 10:10:39;;;;;;;5.05;1.15;;;;;;;8.56;55.42;100495.69;6274380;22;20016;-73
2023/01/05 10:13:13;;;;;;;5.32;1.42;;;;;;;8.53;55.80;100502.16;6274684;22;20078;-73
2023/01/05 10:15:44;;;;;;;7.65;1.23;;;;;;;8.09;56.29;100496.72;6274477;22;20407;-72
2023/01/05 10:18:17;;;;;;;7.10;1.35;;;;;;;7.54;57.82;100499.31;6274841;22;20023;-73
2023/01/05 10:21:00;;;;;;;5.10;1.23;;;;;;;7.99;57.40;100509.28;6275043;22;20472;-72
2023/01/05 10:23:29;;;;;;;15.38;1.88;;;;;;;7.51;58.09;100517.47;6247735;22;20095;-72
2023/01/05 10:26:07;;;;;;;5.38;1.08;;;;;;;7.70;57.41;100503.19;6275913;22;20043;-72
2023/01/05 10:28:59;;;;;;;7.90;1.10;;;;;;;7.71;57.39;100499.53;6274000;22;20095;-71
2023/01/05 10:31:42;;;;;;;2.75;1.02;;;;;;;7.70;56.74;100509.34;6270353;22;20016;-71
2023/01/05 10:34:21;;;;;;;12.98;1.92;;;;;;;7.24;58.30;100516.38;6244373;23;20020;-74
2023/01/05 10:37:04;;;;;;;9.55;1.23;;;;;;;7.43;57.51;100531.53;6244108;23;20031;-74
2023/01/05 10:39:48;;;;;;;7.30;1.38;;;;;;;7.57;57.28;100532.88;6241628;23;20016;-73
2023/01/05 10:42:33;;;;;;;9.85;1.48;;;;;;;7.48;57.23;100521.25;6243263;23;20020;-74
2023/01/05 10:45:05;;;;;;;9.50;2.22;;;;;;;7.44;57.01;100522.53;6243568;23;20055;-73
2023/01/05 10:47:37;;;;;;;7.50;1.42;;;;;;;7.43;56.70;100524.38;6242946;23;20020;-73
2023/01/05 10:50:19;;;;;;;9.48;1.38;;;;;;;7.42;56.22;100525.31;6242993;23;20155;-73
2023/01/05 10:52:46;;;;;;;4.90;0.73;;;;;;;7.24;57.06;100528.91;6241656;23;20491;-73
2023/01/05 10:55:16;;;;;;;11.20;1.52;;;;;;;7.55;55.97;100524.19;6243695;23;20463;-72
2023/01/05 10:57:45;;;;;;;8.98;1.38;;;;;;;7.37;55.89;100535.59;6242991;23;20024;-72
2023/01/05 11:00:16;;;;;;;8.85;1.70;;;;;;;7.26;56.57;100525.09;6243375;23;20028;-74
2023/01/05 11:02:51;;;;;;;;;;;;;;;7.33;56.14;100525.38;6243789;23;20070;-72
2023/01/05 11:05:22;;;;;;;6.40;1.23;;;;;;;7.07;57.55;100528.63;6242695;23;20049;-73
2023/01/05 11:07:55;;;;;;;11.40;0.83;;;;;;;7.16;57.23;100534.94;6242326;23;20024;-73
2023/01/05 11:10:27;;;;;;;6.82;1.08;;;;;;;7.10;57.08;100539.03;6242699;23;20354;-73
2023/01/05 11:13:26;;;;;;;9.30;1.75;;;;;;;7.30;57.89;100523.00;6243567;23;20015;-72
2023/01/05 11:15:55;;;;;;;4.72;1.52;;;;;;;7.32;56.75;100537.84;6201359;23;20016;-71
2023/01/05 11:19:03;;;;;;;9.38;1.55;;;;;;;7.51;56.39;100549.50;6242315;23;20024;-71
2023/01/05 11:21:37;;;;;;;8.88;1.77;;;;;;;7.19;56.83;100527.50;6183762;23;20517;-71
2023/01/05 11:24:24;;;;;;;7.47;1.15;;;;;;;7.37;57.11;100524.94;6243109;23;20150;-72
2023/01/05 11:26:53;;;;;;;7.47;1.30;;;;;;;7.60;56.16;100549.47;6242517;23;20087;-73
2023/01/05 11:29:20;;;;;;;7.30;1.20;;;;;;;7.59;56.17;100553.09;6242967;23;20023;-71
2023/01/05 11:31:56;;;;;;;8.88;1.67;;;;;;;7.43;56.49;100555.56;6243217;22;20095;-73
2023/01/05 11:34:38;;;;;;;15.10;1.83;;;;;;;7.71;55.75;100556.47;6243000;23;20046;-70
2023/01/05 11:37:28;;;;;;;11.30;1.55;;;;;;;7.49;55.86;100557.63;6242827;23;20095;-69
2023/01/05 11:40:00;;;;;;;7.15;1.42;;;;;;;7.51;55.82;100574.34;6243562;23;20026;-69
2023/01/05 11:42:29;;;;;;;6.80;1.27;;;;;;;7.54;56.21;100567.91;6243549;23;20326;-68
2023/01/05 11:45:06;;;;;;;10.15;1.52;;;;;;;7.37;56.47;100572.97;6242521;23;20467;-68
2023/01/05 11:47:38;;;;;;;9.35;1.35;;;;;;;7.46;56.00;100573.94;6242640;23;20095;-69
2023/01/05 11:50:13;;;;;;;11.48;1.30;;;;;;;7.22;56.56;100577.06;6241965;23;20094;-69
2023/01/05 11:52:45;;;;;;;7.65;1.73;;;;;;;7.70;55.85;100593.97;6242318;23;20116;-68
2023/01/05 11:55:31;;;;;;;9.43;1.40;;;;;;;7.57;56.52;100595.16;6241579;23;20483;-68
2023/01/05 11:58:20;;;;;;;13.70;1.60;;;;;;;7.06;56.90;100590.97;6241692;23;20020;-69
2023/01/05 12:01:09;;;;;;;7.15;1.42;;;;;;;7.51;56.51;100610.88;6242018;23;20099;-68
2023/01/05 12:04:02;;;;;;;8.75;1.77;;;;;;;7.48;56.25;100601.31;6241421;23;20346;-68
2023/01/05 12:07:07;;;;;;;11.60;2.05;;;;;;;7.56;56.29;100614.78;6242145;23;20059;-70
2023/01/05 12:09:43;;;;;;;5.30;1.30;;;;;;;7.65;55.77;100616.63;6241019;23;20071;-70
2023/01/05 12:12:37;;;;;;;5.88;1.40;;;;;;;7.08;57.29;100623.66;6243125;23;20099;-70
2023/01/05 12:15:39;;;;;;;12.85;1.70;;;;;;;7.36;56.74;100614.00;6239784;23;20024;-70
2023/01/05 12:18:29;;;;;;;10.68;1.25;;;;;;;7.16;57.02;100623.00;6241236;23;20095;-71
2023/01/05 12:21:23;;;;;;;6.90;1.10;;;;;;;7.08;56.94;100628.16;6241628;23;20119;-70